Terminal Aerodrome Forecast
Issued by NWS

Home | Current Version | Previous Version | Text Only | Print | Product List | Glossary On
Versions: 1 2 3 4 5 6 7 8 9 10 11 12 13
271
FTUS44 KMAF 010523
TAFFST
TAF
KFST 010523Z 0106/0206 10013G19KT P6SM SKC
     FM011400 03017G25KT P6SM OVC030 PROB30 0115/0118 6SM -TSRA
      OVC020CB
     FM011800 01014G21KT P6SM OVC030 PROB30 0118/0124 6SM -TSRA
      OVC020CB=

USA.gov is the U.S. government's official web portal to all federal, state and local government web resources and services.